createdAt,value
2017-11-26T00:01:28.528Z,10.23
2017-11-26T00:03:56.954Z,10.30
2017-11-26T00:06:24.596Z,10.10
2017-11-26T00:08:52.216Z,10.07
2017-11-26T00:11:19.842Z,10.10
2017-11-26T00:13:48.265Z,8.93
2017-11-26T00:16:15.878Z,10.63
2017-11-26T00:18:44.349Z,10.70
2017-11-26T00:21:11.981Z,10.03
2017-11-26T00:23:39.649Z,9.67
2017-11-26T00:26:07.319Z,10.33
2017-11-26T00:28:35.028Z,10.23
2017-11-26T00:31:02.665Z,11.00
2017-11-26T00:33:31.044Z,9.90
2017-11-26T00:35:59.476Z,10.40
2017-11-26T00:38:27.163Z,9.03
2017-11-26T00:40:54.771Z,9.47
2017-11-26T00:43:22.440Z,10.13
2017-11-26T00:45:50.125Z,9.13
2017-11-26T00:48:17.814Z,8.27
2017-11-26T00:50:46.242Z,8.40
2017-11-26T00:53:13.910Z,9.50
2017-11-26T00:55:41.587Z,9.10
2017-11-26T00:58:09.212Z,8.30
2017-11-26T01:00:37.617Z,9.73
2017-11-26T01:03:05.259Z,8.90
2017-11-26T01:05:32.885Z,9.63
2017-11-26T01:08:01.317Z,7.67
2017-11-26T01:10:28.931Z,9.10
2017-11-26T01:12:56.576Z,9.90
2017-11-26T01:15:24.964Z,10.27
2017-11-26T01:17:52.604Z,8.70
2017-11-26T01:20:20.992Z,10.00
2017-11-26T01:22:49.423Z,9.87
2017-11-26T01:25:17.036Z,9.50
2017-11-26T01:27:45.429Z,9.70
2017-11-26T01:30:13.107Z,10.37
2017-11-26T01:32:40.749Z,9.30
2017-11-26T01:35:08.426Z,10.17
2017-11-26T01:37:36.093Z,10.60
2017-11-26T01:40:03.891Z,10.73
2017-11-26T01:42:31.544Z,10.40
2017-11-26T01:44:59.194Z,10.60
2017-11-26T01:49:49.102Z,9.97
2017-11-26T01:52:16.797Z,11.30
2017-11-26T01:54:44.495Z,10.50
2017-11-26T01:57:12.202Z,9.00
2017-11-26T01:59:40.685Z,10.03
2017-11-26T02:02:09.141Z,10.37
2017-11-26T02:04:36.825Z,11.03
2017-11-26T02:07:05.240Z,10.97
2017-11-26T02:09:32.971Z,12.17
2017-11-26T02:12:01.416Z,12.53
2017-11-26T02:14:29.072Z,12.43
2017-11-26T02:16:56.759Z,11.23
2017-11-26T02:19:25.272Z,11.70
2017-11-26T02:21:52.916Z,11.30
2017-11-26T02:24:20.607Z,11.80
2017-11-26T02:26:48.308Z,11.90
2017-11-26T02:29:16.013Z,10.27
2017-11-26T02:31:55.591Z,11.60
2017-11-26T02:34:32.150Z,12.17
2017-11-26T02:36:59.913Z,12.07
2017-11-26T02:39:27.628Z,12.20
2017-11-26T02:41:56.170Z,11.67
2017-11-26T02:44:23.925Z,11.80
2017-11-26T02:46:51.593Z,11.90
2017-11-26T02:49:19.347Z,11.40
2017-11-26T02:51:47.036Z,11.33
2017-11-26T02:54:15.529Z,12.00
2017-11-26T02:56:43.973Z,12.50
2017-11-26T02:59:11.698Z,11.63
2017-11-26T03:01:39.390Z,12.47
2017-11-26T03:04:07.099Z,12.73
2017-11-26T03:06:34.750Z,10.93
2017-11-26T03:09:03.209Z,10.20
2017-11-26T03:11:30.905Z,12.67
2017-11-26T03:13:58.621Z,13.57
2017-11-26T03:16:26.295Z,12.27
2017-11-26T03:18:53.974Z,12.10
2017-11-26T03:21:22.415Z,11.37
2017-11-26T03:23:50.099Z,11.37
2017-11-26T03:26:17.800Z,10.90
2017-11-26T03:28:45.494Z,11.00
2017-11-26T03:31:13.240Z,12.10
2017-11-26T03:33:40.888Z,11.00
2017-11-26T03:36:08.544Z,11.47
2017-11-26T03:38:36.291Z,10.87
2017-11-26T03:41:04.075Z,10.60
2017-11-26T03:43:31.756Z,11.43
2017-11-26T03:45:59.431Z,11.87
2017-11-26T03:48:27.184Z,11.80
2017-11-26T03:50:54.836Z,12.27
2017-11-26T03:53:22.468Z,12.00
2017-11-26T03:55:50.192Z,11.70
2017-11-26T03:58:17.844Z,11.60
2017-11-26T04:00:45.525Z,11.30
2017-11-26T04:03:13.969Z,11.77
2017-11-26T04:05:41.644Z,13.63
2017-11-26T04:08:09.277Z,11.13
2017-11-26T04:10:36.997Z,12.33
2017-11-26T04:13:04.643Z,14.13
2017-11-26T04:15:33.178Z,12.53
2017-11-26T04:18:00.906Z,13.30
2017-11-26T04:20:28.549Z,13.00
2017-11-26T04:22:57.075Z,13.00
2017-11-26T04:25:24.696Z,13.87
2017-11-26T04:27:53.117Z,12.27
2017-11-26T04:30:20.784Z,12.03
2017-11-26T04:32:48.503Z,11.83
2017-11-26T04:35:16.185Z,13.80
2017-11-26T04:37:44.603Z,11.90
2017-11-26T04:40:12.759Z,11.97
2017-11-26T04:42:40.429Z,13.03
2017-11-26T04:45:08.133Z,12.80
2017-11-26T04:47:35.779Z,13.47
2017-11-26T04:50:03.493Z,14.03
2017-11-26T04:52:31.140Z,13.80
2017-11-26T04:54:58.784Z,14.83
2017-11-26T04:57:26.437Z,13.57
2017-11-26T04:59:54.110Z,14.80
2017-11-26T05:02:21.836Z,13.83
2017-11-26T05:04:50.313Z,12.40
2017-11-26T05:07:18.725Z,13.27
2017-11-26T05:09:46.431Z,13.83
2017-11-26T05:12:14.082Z,11.50
2017-11-26T05:14:41.733Z,12.80
2017-11-26T05:17:09.394Z,12.97
2017-11-26T05:19:37.036Z,12.80
2017-11-26T05:22:04.750Z,12.60
2017-11-26T05:24:32.418Z,12.80
2017-11-26T05:27:00.860Z,11.23
2017-11-26T05:29:28.487Z,12.30
2017-11-26T05:31:56.152Z,12.27
2017-11-26T05:34:23.801Z,12.50
2017-11-26T05:36:51.512Z,12.10
2017-11-26T05:39:19.188Z,11.70
2017-11-26T05:41:46.834Z,10.90
2017-11-26T05:44:14.536Z,11.50
2017-11-26T05:46:42.156Z,10.03
2017-11-26T05:49:09.826Z,10.07
2017-11-26T05:51:37.524Z,9.90
2017-11-26T05:54:05.181Z,10.60
2017-11-26T05:56:32.817Z,8.77
2017-11-26T05:59:01.206Z,8.50
2017-11-26T06:01:29.659Z,8.13
2017-11-26T06:03:57.301Z,7.73
2017-11-26T06:06:24.973Z,7.20
2017-11-26T06:08:52.620Z,7.13
2017-11-26T06:11:20.280Z,6.30
2017-11-26T06:13:47.917Z,6.77
2017-11-26T06:16:15.607Z,6.20
2017-11-26T06:18:44.047Z,6.60
2017-11-26T06:21:11.698Z,6.70
2017-11-26T06:23:39.361Z,5.87
2017-11-26T06:26:07.036Z,5.80
2017-11-26T06:28:34.681Z,5.60
2017-11-26T06:31:02.308Z,5.20
2017-11-26T06:33:30.812Z,6.30
2017-11-26T06:35:58.483Z,4.87
2017-11-26T06:38:26.173Z,4.23
2017-11-26T06:40:53.843Z,5.23
2017-11-26T06:43:21.510Z,5.20
2017-11-26T06:45:49.210Z,5.10
2017-11-26T06:48:17.625Z,5.27
2017-11-26T06:50:45.358Z,5.33
2017-11-26T06:53:13.048Z,6.43
2017-11-26T06:55:40.727Z,6.93
2017-11-26T06:58:08.396Z,6.13
2017-11-26T07:00:36.136Z,6.13
2017-11-26T07:03:03.818Z,6.87
2017-11-26T07:05:31.472Z,6.17
2017-11-26T07:07:59.134Z,5.87
2017-11-26T07:10:26.830Z,4.87
2017-11-26T07:12:55.359Z,4.87
2017-11-26T07:15:22.965Z,5.97
2017-11-26T07:17:51.373Z,6.37
2017-11-26T07:20:19.022Z,6.60
2017-11-26T07:22:46.726Z,5.10
2017-11-26T07:25:14.408Z,5.80
2017-11-26T07:27:42.085Z,5.93
2017-11-26T07:30:10.477Z,5.63
2017-11-26T07:32:38.118Z,5.37
2017-11-26T07:35:06.539Z,4.93
2017-11-26T07:37:34.148Z,4.50
2017-11-26T07:40:02.578Z,4.33
2017-11-26T07:42:31.136Z,4.63
2017-11-26T07:44:58.773Z,3.90
2017-11-26T07:47:27.168Z,4.00
2017-11-26T07:49:54.847Z,4.00
2017-11-26T07:52:22.496Z,3.70
2017-11-26T07:54:50.186Z,4.10
2017-11-26T07:57:18.648Z,3.30
2017-11-26T07:59:46.306Z,4.20
2017-11-26T08:02:14.716Z,3.60
2017-11-26T08:04:42.373Z,3.53
2017-11-26T08:07:10.316Z,3.43
2017-11-26T08:09:37.933Z,3.10
2017-11-26T08:12:05.553Z,2.70
2017-11-26T08:14:33.225Z,3.47
2017-11-26T08:17:00.864Z,3.67
2017-11-26T08:19:29.293Z,3.37
2017-11-26T08:21:57.680Z,3.00
2017-11-26T08:24:26.159Z,3.33
2017-11-26T08:26:54.540Z,2.90
2017-11-26T08:29:23.469Z,3.47
2017-11-26T08:31:51.146Z,2.80
2017-11-26T08:34:18.761Z,3.33
2017-11-26T08:36:46.447Z,3.60
2017-11-26T08:39:14.104Z,2.60
2017-11-26T08:41:41.788Z,3.47
2017-11-26T08:44:09.449Z,3.20
2017-11-26T08:46:37.237Z,3.40
2017-11-26T08:49:04.891Z,3.00
2017-11-26T08:51:32.552Z,2.80
2017-11-26T08:54:00.244Z,2.90
2017-11-26T08:56:27.892Z,3.20
2017-11-26T08:58:56.360Z,3.30
2017-11-26T09:01:24.792Z,2.63
2017-11-26T09:03:52.489Z,3.30
2017-11-26T09:06:20.837Z,2.90
2017-11-26T09:08:50.337Z,3.17
2017-11-26T09:11:17.999Z,2.77
2017-11-26T09:13:45.707Z,3.20
2017-11-26T09:16:14.193Z,3.07
2017-11-26T09:18:42.024Z,2.97
2017-11-26T09:21:09.693Z,2.70
2017-11-26T09:23:37.296Z,3.40
2017-11-26T09:26:04.983Z,3.53
2017-11-26T09:28:32.649Z,4.10
2017-11-26T09:31:00.297Z,3.70
2017-11-26T09:33:27.961Z,3.10
2017-11-26T09:35:55.645Z,3.60
2017-11-26T09:38:23.260Z,3.57
2017-11-26T09:40:51.018Z,3.30
2017-11-26T09:43:18.641Z,3.23
2017-11-26T09:45:47.071Z,3.47
2017-11-26T09:48:14.756Z,4.43
2017-11-26T09:50:42.409Z,3.47
2017-11-26T09:53:10.085Z,3.77
2017-11-26T09:55:37.705Z,3.40
2017-11-26T09:58:05.345Z,3.40
2017-11-26T10:00:32.967Z,3.23
2017-11-26T10:03:00.705Z,3.30
2017-11-26T10:05:28.348Z,3.50
2017-11-26T10:07:55.981Z,3.90
2017-11-26T10:10:25.799Z,3.47
2017-11-26T10:12:53.941Z,3.13
2017-11-26T10:15:21.858Z,3.20
2017-11-26T10:17:50.016Z,3.37
2017-11-26T10:20:17.665Z,3.50
2017-11-26T10:22:45.280Z,3.03
2017-11-26T10:25:13.308Z,2.90
2017-11-26T10:27:40.984Z,3.00
2017-11-26T10:30:08.624Z,3.70
2017-11-26T10:32:36.363Z,3.40
2017-11-26T10:35:04.778Z,4.10
2017-11-26T10:37:32.428Z,3.77
2017-11-26T10:40:00.104Z,3.83
2017-11-26T10:42:27.796Z,4.00
2017-11-26T10:44:55.465Z,4.07
2017-11-26T10:47:23.205Z,3.50
2017-11-26T10:49:50.845Z,3.40
2017-11-26T10:52:18.556Z,3.50
2017-11-26T10:54:47.031Z,3.90
2017-11-26T10:57:14.718Z,4.07
2017-11-26T10:59:42.460Z,4.23
2017-11-26T11:02:10.897Z,3.00
2017-11-26T11:04:38.584Z,2.60
2017-11-26T11:07:06.249Z,3.67
2017-11-26T11:09:33.978Z,3.40
2017-11-26T11:12:01.666Z,4.03
2017-11-26T11:14:29.380Z,3.30
2017-11-26T11:16:57.065Z,3.33
2017-11-26T11:19:24.784Z,3.43
2017-11-26T11:21:52.406Z,3.07
2017-11-26T11:24:20.098Z,2.93
2017-11-26T11:26:47.733Z,3.10
2017-11-26T11:29:15.454Z,2.00
2017-11-26T11:31:43.075Z,2.53
2017-11-26T11:34:11.480Z,2.73
2017-11-26T11:36:39.925Z,3.90
2017-11-26T11:39:08.391Z,2.63
2017-11-26T11:41:36.062Z,3.03
2017-11-26T11:44:04.504Z,1.93
2017-11-26T11:46:32.172Z,1.90
2017-11-26T11:48:59.787Z,2.30
2017-11-26T11:51:27.529Z,1.87
2017-11-26T11:53:55.968Z,2.90
2017-11-26T11:56:23.701Z,2.20
2017-11-26T11:58:51.433Z,1.60
2017-11-26T12:01:19.892Z,1.80
2017-11-26T12:03:47.641Z,2.00
2017-11-26T12:06:15.308Z,2.17
2017-11-26T12:08:42.992Z,2.20
2017-11-26T12:11:11.474Z,2.23
2017-11-26T12:13:39.202Z,2.40
2017-11-26T12:16:06.883Z,2.40
2017-11-26T12:18:34.619Z,2.47
2017-11-26T12:21:02.336Z,2.67
2017-11-26T12:23:30.044Z,2.63
2017-11-26T12:25:57.742Z,2.47
2017-11-26T12:28:26.431Z,3.20
2017-11-26T12:30:54.206Z,2.93
2017-11-26T12:33:21.884Z,3.50
2017-11-26T12:35:49.694Z,3.20
2017-11-26T12:38:17.386Z,3.27
2017-11-26T12:40:45.838Z,3.03
2017-11-26T12:43:13.540Z,3.50
2017-11-26T12:45:41.232Z,3.27
2017-11-26T12:48:08.956Z,3.37
2017-11-26T12:50:36.644Z,3.97
2017-11-26T12:53:04.360Z,3.10
2017-11-26T12:55:32.086Z,3.10
2017-11-26T12:57:59.850Z,3.07
2017-11-26T13:00:27.526Z,3.53
2017-11-26T13:02:55.208Z,4.30
2017-11-26T13:05:23.695Z,3.23
2017-11-26T13:07:52.157Z,3.80
2017-11-26T13:10:20.645Z,3.37
2017-11-26T13:12:49.148Z,3.60
2017-11-26T13:15:16.938Z,3.50
2017-11-26T13:17:44.662Z,2.90
2017-11-26T13:20:12.469Z,3.40
2017-11-26T13:22:40.220Z,3.20
2017-11-26T13:25:07.957Z,3.27
2017-11-26T13:27:35.689Z,3.00
2017-11-26T13:30:04.136Z,3.10
2017-11-26T13:32:31.865Z,2.47
2017-11-26T13:34:59.552Z,2.80
2017-11-26T13:37:27.244Z,2.60
2017-11-26T13:39:54.962Z,2.50
2017-11-26T13:42:22.647Z,2.53
2017-11-26T13:44:50.405Z,2.20
2017-11-26T13:47:18.129Z,2.80
2017-11-26T13:49:46.378Z,2.40
2017-11-26T13:52:14.901Z,2.67
2017-11-26T13:54:42.677Z,2.27
2017-11-26T13:57:10.449Z,2.30
2017-11-26T13:59:38.148Z,2.23
2017-11-26T14:02:06.630Z,2.10
2017-11-26T14:04:35.172Z,2.00
2017-11-26T14:07:02.900Z,2.33
2017-11-26T14:09:30.609Z,2.03
2017-11-26T14:11:58.322Z,2.33
2017-11-26T14:14:26.050Z,2.50
2017-11-26T14:16:54.511Z,2.50
2017-11-26T14:19:22.218Z,2.30
2017-11-26T14:21:49.907Z,2.60
2017-11-26T14:24:17.577Z,2.07
2017-11-26T14:26:45.292Z,2.53
2017-11-26T14:29:12.966Z,2.60
2017-11-26T14:31:40.704Z,2.77
2017-11-26T14:34:09.175Z,3.13
2017-11-26T14:36:37.616Z,3.40
2017-11-26T14:39:05.357Z,2.70
2017-11-26T14:41:33.036Z,2.80
2017-11-26T14:44:00.831Z,2.80
2017-11-26T14:46:28.511Z,2.40
2017-11-26T14:48:56.991Z,2.40
2017-11-26T14:51:24.709Z,3.03
2017-11-26T14:53:52.439Z,2.73
2017-11-26T14:56:20.189Z,2.63
2017-11-26T14:58:47.920Z,2.20
2017-11-26T15:01:16.408Z,2.10
2017-11-26T15:03:44.852Z,2.10
2017-11-26T15:06:12.596Z,2.67
2017-11-26T15:08:40.315Z,2.77
2017-11-26T15:11:08.752Z,3.07
2017-11-26T15:13:36.499Z,2.87
2017-11-26T15:16:04.229Z,2.53
2017-11-26T15:18:32.029Z,2.97
2017-11-26T15:20:59.704Z,2.50
2017-11-26T15:23:27.390Z,2.77
2017-11-26T15:25:55.991Z,2.37
2017-11-26T15:28:23.678Z,2.17
2017-11-26T15:30:51.405Z,2.60
2017-11-26T15:33:19.849Z,2.80
2017-11-26T15:35:47.558Z,2.90
2017-11-26T15:38:15.249Z,2.87
2017-11-26T15:40:42.996Z,2.80
2017-11-26T15:43:10.680Z,2.30
2017-11-26T15:45:38.366Z,3.10
2017-11-26T15:48:06.120Z,3.10
2017-11-26T15:50:33.770Z,3.30
2017-11-26T15:53:01.504Z,2.70
2017-11-26T15:55:29.198Z,3.30
2017-11-26T15:57:56.965Z,3.27
2017-11-26T16:00:24.668Z,2.73
2017-11-26T16:02:52.382Z,3.57
2017-11-26T16:05:20.095Z,2.80
2017-11-26T16:07:47.848Z,3.60
2017-11-26T16:10:15.634Z,3.27
2017-11-26T16:12:43.334Z,3.57
2017-11-26T16:15:11.190Z,3.53
2017-11-26T16:17:38.896Z,2.77
2017-11-26T16:20:07.335Z,2.60
2017-11-26T16:22:35.056Z,3.20
2017-11-26T16:25:02.736Z,2.97
2017-11-26T16:27:30.454Z,3.70
2017-11-26T16:29:58.179Z,3.03
2017-11-26T16:32:25.925Z,3.00
2017-11-26T16:34:53.616Z,3.70
2017-11-26T16:37:21.324Z,3.80
2017-11-26T16:39:49.029Z,4.77
2017-11-26T16:42:16.766Z,4.80
2017-11-26T16:44:44.446Z,4.37
2017-11-26T16:47:12.161Z,5.87
2017-11-26T16:49:39.988Z,4.57
2017-11-26T16:52:09.318Z,5.50
2017-11-26T16:54:38.982Z,5.67
2017-11-26T16:57:07.470Z,6.23
2017-11-26T16:59:35.189Z,5.80
2017-11-26T17:02:02.964Z,5.10
2017-11-26T17:04:30.675Z,5.10
2017-11-26T17:06:59.246Z,5.20
2017-11-26T17:09:26.989Z,4.60
2017-11-26T17:11:54.713Z,5.13
2017-11-26T17:14:22.424Z,5.17
2017-11-26T17:16:50.238Z,5.23
2017-11-26T17:19:17.979Z,5.00
2017-11-26T17:21:45.823Z,5.37
2017-11-26T17:24:13.681Z,5.13
2017-11-26T17:26:41.425Z,5.70
2017-11-26T17:29:09.218Z,5.30
2017-11-26T17:31:36.977Z,5.97
2017-11-26T17:34:04.667Z,5.10
2017-11-26T17:36:32.484Z,5.60
2017-11-26T17:39:00.240Z,5.90
2017-11-26T17:41:28.046Z,5.80
2017-11-26T17:43:56.566Z,5.90
2017-11-26T17:46:24.394Z,5.23
2017-11-26T17:48:52.195Z,4.97
2017-11-26T17:51:20.023Z,4.63
2017-11-26T17:53:47.853Z,5.40
2017-11-26T17:56:15.616Z,5.17
2017-11-26T17:58:43.477Z,4.80
2017-11-26T18:01:11.296Z,4.93
2017-11-26T18:03:39.192Z,4.73
2017-11-26T18:06:07.232Z,4.70
2017-11-26T18:08:35.164Z,5.50
2017-11-26T18:11:04.828Z,5.00
2017-11-26T18:13:32.513Z,4.80
2017-11-26T18:16:00.264Z,6.30
2017-11-26T18:18:28.128Z,4.83
2017-11-26T18:20:56.259Z,5.33
2017-11-26T18:23:24.053Z,4.70
2017-11-26T18:25:51.808Z,5.00
2017-11-26T18:28:19.649Z,5.50
2017-11-26T18:30:47.502Z,4.60
2017-11-26T18:33:16.135Z,4.80
2017-11-26T18:35:43.842Z,5.00
2017-11-26T18:38:12.313Z,5.13
2017-11-26T18:40:40.768Z,4.10
2017-11-26T18:43:08.497Z,4.43
2017-11-26T18:45:36.238Z,4.60
2017-11-26T18:48:04.009Z,4.83
2017-11-26T18:50:31.729Z,4.23
2017-11-26T18:52:59.489Z,4.40
2017-11-26T18:55:27.336Z,4.57
2017-11-26T18:57:55.297Z,4.37
2017-11-26T19:00:23.109Z,4.20
2017-11-26T19:02:50.980Z,4.47
2017-11-26T19:05:18.778Z,4.33
2017-11-26T19:07:46.505Z,4.43
2017-11-26T19:10:14.218Z,4.90
2017-11-26T19:12:41.889Z,4.50
2017-11-26T19:15:09.564Z,3.33
2017-11-26T19:17:37.990Z,3.90
2017-11-26T19:20:05.742Z,4.20
2017-11-26T19:22:34.477Z,3.97
2017-11-26T19:25:02.320Z,5.00
2017-11-26T19:27:29.977Z,4.53
2017-11-26T19:29:57.897Z,4.33
2017-11-26T19:32:25.747Z,4.50
2017-11-26T19:34:54.442Z,4.50
2017-11-26T19:37:22.148Z,4.37
2017-11-26T19:39:49.836Z,4.60
2017-11-26T19:42:17.528Z,4.67
2017-11-26T19:44:45.205Z,4.80
2017-11-26T19:47:13.105Z,5.30
2017-11-26T19:49:41.545Z,5.73
2017-11-26T19:52:09.555Z,4.97
2017-11-26T19:54:38.260Z,4.50
2017-11-26T19:57:07.070Z,5.07
2017-11-26T19:59:34.995Z,4.30
2017-11-26T20:02:02.753Z,4.97
2017-11-26T20:04:30.408Z,4.70
2017-11-26T20:06:58.178Z,5.10
2017-11-26T20:09:26.146Z,5.23
2017-11-26T20:11:54.596Z,5.77
2017-11-26T20:14:22.313Z,5.57
2017-11-26T20:16:50.701Z,5.40
2017-11-26T20:19:19.329Z,5.60
2017-11-26T20:21:47.226Z,5.00
2017-11-26T20:24:14.859Z,5.37
2017-11-26T20:26:42.549Z,5.07
2017-11-26T20:29:10.256Z,4.63
2017-11-26T20:31:37.944Z,5.37
2017-11-26T20:34:05.588Z,5.30
2017-11-26T20:36:33.233Z,5.60
2017-11-26T20:39:00.856Z,5.20
2017-11-26T20:41:29.294Z,5.30
2017-11-26T20:43:57.342Z,5.40
2017-11-26T20:46:24.957Z,5.27
2017-11-26T20:48:52.631Z,4.77
2017-11-26T20:51:21.184Z,4.30
2017-11-26T20:53:48.871Z,5.40
2017-11-26T20:56:17.481Z,5.17
2017-11-26T20:58:45.174Z,4.70
2017-11-26T21:01:12.810Z,4.60
2017-11-26T21:03:40.600Z,5.57
2017-11-26T21:06:08.270Z,4.93
2017-11-26T21:08:35.913Z,5.50
2017-11-26T21:11:03.822Z,5.53
2017-11-26T21:13:31.467Z,4.87
2017-11-26T21:15:59.119Z,4.90
2017-11-26T21:18:26.781Z,5.10
2017-11-26T21:20:54.417Z,4.60
2017-11-26T21:23:22.117Z,4.87
2017-11-26T21:25:50.533Z,4.63
2017-11-26T21:28:18.201Z,5.27
2017-11-26T21:30:45.810Z,4.30
2017-11-26T21:33:14.323Z,4.20
2017-11-26T21:35:42.023Z,4.83
2017-11-26T21:38:09.640Z,4.63
2017-11-26T21:40:37.314Z,4.10
2017-11-26T21:43:04.960Z,4.70
2017-11-26T21:45:32.630Z,4.50
2017-11-26T21:48:00.276Z,4.57
2017-11-26T21:50:28.143Z,3.97
2017-11-26T21:52:57.208Z,4.17
2017-11-26T21:55:25.613Z,3.70
2017-11-26T21:57:53.396Z,4.60
2017-11-26T22:00:21.247Z,4.57
2017-11-26T22:02:49.055Z,4.07
2017-11-26T22:05:17.317Z,4.37
2017-11-26T22:07:45.007Z,3.93
2017-11-26T22:10:13.492Z,4.10
2017-11-26T22:12:41.144Z,4.30
2017-11-26T22:15:09.744Z,4.33
2017-11-26T22:17:38.146Z,4.30
2017-11-26T22:20:05.896Z,4.60
2017-11-26T22:22:33.765Z,4.60
2017-11-26T22:25:01.461Z,4.57
2017-11-26T22:27:29.296Z,4.23
2017-11-26T22:29:56.987Z,4.87
2017-11-26T22:32:24.712Z,3.83
2017-11-26T22:34:53.004Z,4.67
2017-11-26T22:37:20.733Z,4.90
2017-11-26T22:39:49.423Z,4.73
2017-11-26T22:42:17.654Z,5.00
2017-11-26T22:44:46.499Z,4.63
2017-11-26T22:47:15.124Z,5.10
2017-11-26T22:49:43.172Z,5.13
2017-11-26T22:52:11.904Z,4.77
2017-11-26T22:54:40.480Z,4.87
2017-11-26T22:57:09.527Z,4.90
2017-11-26T22:59:37.346Z,5.00
2017-11-26T23:02:05.193Z,5.43
2017-11-26T23:04:44.685Z,5.20
2017-11-26T23:07:12.373Z,4.80
2017-11-26T23:09:39.992Z,5.47
2017-11-26T23:12:08.181Z,4.93
2017-11-26T23:14:36.060Z,5.10
2017-11-26T23:17:03.684Z,4.80
2017-11-26T23:19:31.324Z,5.50
2017-11-26T23:21:59.726Z,5.37
2017-11-26T23:24:27.404Z,4.90
2017-11-26T23:26:55.043Z,5.50
2017-11-26T23:29:22.684Z,4.80
2017-11-26T23:31:51.087Z,5.03
2017-11-26T23:34:18.725Z,5.70
2017-11-26T23:36:47.155Z,5.50
2017-11-26T23:39:14.792Z,5.30
2017-11-26T23:41:42.549Z,6.00
2017-11-26T23:44:10.189Z,5.47
2017-11-26T23:46:38.569Z,5.30
2017-11-26T23:49:06.986Z,5.53
2017-11-26T23:51:34.601Z,5.57
2017-11-26T23:54:03.030Z,5.20
2017-11-26T23:56:30.662Z,5.50
2017-11-26T23:58:58.389Z,5.53
